sensor_id;sensor_type;location;lat;lon;timestamp;pressure;altitude;pressure_sealevel;temperature;humidity
56894;BME280;43392;50.078;13.704;2023-02-18T00:00:52;97209.38;;;9.39;90.45
56894;BME280;43392;50.078;13.704;2023-02-18T00:03:18;97209.09;;;9.40;89.33
56894;BME280;43392;50.078;13.704;2023-02-18T00:05:45;97218.75;;;9.41;88.40
56894;BME280;43392;50.078;13.704;2023-02-18T00:08:11;97224.38;;;9.40;88.19
56894;BME280;43392;50.078;13.704;2023-02-18T00:10:40;97220.34;;;9.37;86.63
56894;BME280;43392;50.078;13.704;2023-02-18T00:13:07;97223.03;;;9.37;86.45
56894;BME280;43392;50.078;13.704;2023-02-18T00:15:34;97228.09;;;9.39;84.47
56894;BME280;43392;50.078;13.704;2023-02-18T00:18:00;97235.63;;;9.42;84.33
56894;BME280;43392;50.078;13.704;2023-02-18T00:20:27;97231.34;;;9.46;83.05
56894;BME280;43392;50.078;13.704;2023-02-18T00:22:53;97244.47;;;9.47;83.22
56894;BME280;43392;50.078;13.704;2023-02-18T00:25:20;97242.31;;;9.44;82.81
56894;BME280;43392;50.078;13.704;2023-02-18T00:27:48;97253.28;;;9.43;83.27
56894;BME280;43392;50.078;13.704;2023-02-18T00:30:15;97246.84;;;9.39;82.92
56894;BME280;43392;50.078;13.704;2023-02-18T00:32:42;97246.81;;;9.33;83.54
56894;BME280;43392;50.078;13.704;2023-02-18T00:35:08;97251.59;;;9.26;83.84
56894;BME280;43392;50.078;13.704;2023-02-18T00:37:35;97249.19;;;9.25;83.96
56894;BME280;43392;50.078;13.704;2023-02-18T00:40:02;97258.28;;;9.24;83.91
56894;BME280;43392;50.078;13.704;2023-02-18T00:42:28;97259.09;;;9.24;83.52
56894;BME280;43392;50.078;13.704;2023-02-18T00:44:56;97243.56;;;9.26;83.08
56894;BME280;43392;50.078;13.704;2023-02-18T00:47:23;97240.63;;;9.28;82.76
56894;BME280;43392;50.078;13.704;2023-02-18T00:49:49;97246.81;;;9.33;82.38
56894;BME280;43392;50.078;13.704;2023-02-18T00:52:16;97249.25;;;9.40;80.91
56894;BME280;43392;50.078;13.704;2023-02-18T00:54:42;97261.56;;;9.41;81.26
56894;BME280;43392;50.078;13.704;2023-02-18T00:57:09;97262.63;;;9.40;80.81
56894;BME280;43392;50.078;13.704;2023-02-18T00:59:35;97258.34;;;9.39;80.51
56894;BME280;43392;50.078;13.704;2023-02-18T01:02:03;97259.72;;;9.42;80.21
56894;BME280;43392;50.078;13.704;2023-02-18T01:04:31;97268.28;;;9.44;80.45
56894;BME280;43392;50.078;13.704;2023-02-18T01:06:58;97266.13;;;9.41;80.76
56894;BME280;43392;50.078;13.704;2023-02-18T01:09:24;97254.31;;;9.37;81.02
56894;BME280;43392;50.078;13.704;2023-02-18T01:11:51;97250.03;;;9.35;80.81
56894;BME280;43392;50.078;13.704;2023-02-18T01:14:18;97266.09;;;9.35;80.57
56894;BME280;43392;50.078;13.704;2023-02-18T01:16:44;97263.94;;;9.38;80.02
56894;BME280;43392;50.078;13.704;2023-02-18T01:19:12;97260.75;;;9.41;80.00
56894;BME280;43392;50.078;13.704;2023-02-18T01:21:39;97257.28;;;9.40;80.36
56894;BME280;43392;50.078;13.704;2023-02-18T01:24:06;97247.91;;;9.43;80.10
56894;BME280;43392;50.078;13.704;2023-02-18T01:26:32;97268.56;;;9.42;79.95
56894;BME280;43392;50.078;13.704;2023-02-18T01:28:59;97271.47;;;9.41;79.78
56894;BME280;43392;50.078;13.704;2023-02-18T01:31:26;97262.09;;;9.38;79.53
56894;BME280;43392;50.078;13.704;2023-02-18T01:33:52;97280.00;;;9.38;79.74
56894;BME280;43392;50.078;13.704;2023-02-18T01:36:20;97265.81;;;9.32;79.65
56894;BME280;43392;50.078;13.704;2023-02-18T01:38:47;97268.53;;;9.37;79.51
56894;BME280;43392;50.078;13.704;2023-02-18T01:41:13;97263.69;;;9.34;79.75
56894;BME280;43392;50.078;13.704;2023-02-18T01:43:40;97258.56;;;9.32;79.67
56894;BME280;43392;50.078;13.704;2023-02-18T01:46:15;97257.81;;;9.37;79.61
56894;BME280;43392;50.078;13.704;2023-02-18T01:48:46;97260.22;;;9.39;79.82
56894;BME280;43392;50.078;13.704;2023-02-18T01:51:16;97257.28;;;9.40;79.80
56894;BME280;43392;50.078;13.704;2023-02-18T01:53:49;97267.97;;;9.40;79.80
56894;BME280;43392;50.078;13.704;2023-02-18T01:56:22;97260.25;;;9.44;79.22
56894;BME280;43392;50.078;13.704;2023-02-18T01:58:50;97259.47;;;9.48;79.22
56894;BME280;43392;50.078;13.704;2023-02-18T02:01:18;97253.59;;;9.51;79.24
56894;BME280;43392;50.078;13.704;2023-02-18T02:03:45;97251.97;;;9.50;79.19
56894;BME280;43392;50.078;13.704;2023-02-18T02:06:16;97248.47;;;9.50;79.37
56894;BME280;43392;50.078;13.704;2023-02-18T02:08:45;97244.47;;;9.47;79.29
56894;BME280;43392;50.078;13.704;2023-02-18T02:11:23;97255.97;;;9.48;79.49
56894;BME280;43392;50.078;13.704;2023-02-18T02:14:06;97255.44;;;9.46;79.75
56894;BME280;43392;50.078;13.704;2023-02-18T02:16:41;97245.78;;;9.45;79.81
56894;BME280;43392;50.078;13.704;2023-02-18T02:25:21;97241.25;;;9.45;79.67
56894;BME280;43392;50.078;13.704;2023-02-18T02:28:27;97234.84;;;9.46;79.27
56894;BME280;43392;50.078;13.704;2023-02-18T02:31:17;97237.75;;;9.45;79.49
56894;BME280;43392;50.078;13.704;2023-02-18T02:36:40;97229.69;;;9.34;80.01
56894;BME280;43392;50.078;13.704;2023-02-18T02:39:16;97238.28;;;9.37;79.85
56894;BME280;43392;50.078;13.704;2023-02-18T02:41:51;97230.47;;;9.35;79.73
56894;BME280;43392;50.078;13.704;2023-02-18T02:44:21;97238.50;;;9.35;79.97
56894;BME280;43392;50.078;13.704;2023-02-18T02:46:52;97233.94;;;9.30;80.12
56894;BME280;43392;50.078;13.704;2023-02-18T02:49:32;97233.16;;;9.30;80.50
56894;BME280;43392;50.078;13.704;2023-02-18T02:52:10;97223.25;;;9.30;80.36
56894;BME280;43392;50.078;13.704;2023-02-18T02:54:38;97231.28;;;9.30;80.24
56894;BME280;43392;50.078;13.704;2023-02-18T02:57:08;97236.63;;;9.30;80.18
56894;BME280;43392;50.078;13.704;2023-02-18T02:59:58;97231.00;;;9.27;80.18
56894;BME280;43392;50.078;13.704;2023-02-18T03:02:36;97237.69;;;9.29;80.03
56894;BME280;43392;50.078;13.704;2023-02-18T03:05:13;97247.06;;;9.27;80.31
56894;BME280;43392;50.078;13.704;2023-02-18T03:07:59;97249.97;;;9.25;80.06
56894;BME280;43392;50.078;13.704;2023-02-18T03:10:39;97245.69;;;9.24;80.13
56894;BME280;43392;50.078;13.704;2023-02-18T03:13:15;97253.19;;;9.22;80.24
56894;BME280;43392;50.078;13.704;2023-02-18T03:15:48;97249.44;;;9.23;80.13
56894;BME280;43392;50.078;13.704;2023-02-18T03:18:22;97253.19;;;9.22;79.98
56894;BME280;43392;50.078;13.704;2023-02-18T03:20:54;97247.03;;;9.22;79.66
56894;BME280;43392;50.078;13.704;2023-02-18T03:23:27;97243.53;;;9.21;79.49
56894;BME280;43392;50.078;13.704;2023-02-18T03:25:57;97247.25;;;9.20;79.38
56894;BME280;43392;50.078;13.704;2023-02-18T03:28:28;97247.56;;;9.24;78.57
56894;BME280;43392;50.078;13.704;2023-02-18T03:30:59;97236.56;;;9.20;78.46
56894;BME280;43392;50.078;13.704;2023-02-18T03:33:31;97241.41;;;9.23;78.62
56894;BME280;43392;50.078;13.704;2023-02-18T03:35:59;97236.06;;;9.23;78.23
56894;BME280;43392;50.078;13.704;2023-02-18T03:38:33;97248.63;;;9.23;77.85
56894;BME280;43392;50.078;13.704;2023-02-18T03:41:01;97239.81;;;9.22;77.64
56894;BME280;43392;50.078;13.704;2023-02-18T03:43:28;97239.81;;;9.22;77.36
56894;BME280;43392;50.078;13.704;2023-02-18T03:45:55;97250.50;;;9.22;77.46
56894;BME280;43392;50.078;13.704;2023-02-18T03:48:21;97242.72;;;9.21;77.78
56894;BME280;43392;50.078;13.704;2023-02-18T03:50:48;97239.00;;;9.22;77.53
56894;BME280;43392;50.078;13.704;2023-02-18T03:53:15;97247.56;;;9.24;77.15
56894;BME280;43392;50.078;13.704;2023-02-18T03:55:42;97230.16;;;9.21;77.45
56894;BME280;43392;50.078;13.704;2023-02-18T03:58:09;97241.16;;;9.25;76.86
56894;BME280;43392;50.078;13.704;2023-02-18T04:00:36;97223.75;;;9.22;76.59
56894;BME280;43392;50.078;13.704;2023-02-18T04:03:02;97233.41;;;9.28;76.64
56894;BME280;43392;50.078;13.704;2023-02-18T04:05:29;97230.19;;;9.26;76.83
56894;BME280;43392;50.078;13.704;2023-02-18T04:07:56;97227.25;;;9.28;76.55
56894;BME280;43392;50.078;13.704;2023-02-18T04:10:22;97227.50;;;9.26;76.46
56894;BME280;43392;50.078;13.704;2023-02-18T04:12:50;97235.25;;;9.28;76.52
56894;BME280;43392;50.078;13.704;2023-02-18T04:15:17;97231.53;;;9.29;75.93
56894;BME280;43392;50.078;13.704;2023-02-18T04:17:43;97244.91;;;9.29;75.94
56894;BME280;43392;50.078;13.704;2023-02-18T04:20:10;97241.97;;;9.30;75.72
56894;BME280;43392;50.078;13.704;2023-02-18T04:22:37;97243.28;;;9.28;75.78
56894;BME280;43392;50.078;13.704;2023-02-18T04:25:04;97241.69;;;9.27;76.15
56894;BME280;43392;50.078;13.704;2023-02-18T04:27:31;97250.78;;;9.26;76.06
56894;BME280;43392;50.078;13.704;2023-02-18T04:29:59;97254.53;;;9.25;76.16
56894;BME280;43392;50.078;13.704;2023-02-18T04:32:25;97247.56;;;9.24;75.96
56894;BME280;43392;50.078;13.704;2023-02-18T04:34:52;97248.09;;;9.26;76.19
56894;BME280;43392;50.078;13.704;2023-02-18T04:37:19;97245.44;;;9.26;76.32
56894;BME280;43392;50.078;13.704;2023-02-18T04:39:45;97247.28;;;9.25;76.47
56894;BME280;43392;50.078;13.704;2023-02-18T04:42:12;97248.91;;;9.26;76.41
56894;BME280;43392;50.078;13.704;2023-02-18T04:44:38;97237.41;;;9.26;76.65
56894;BME280;43392;50.078;13.704;2023-02-18T04:47:06;97241.94;;;9.25;76.76
56894;BME280;43392;50.078;13.704;2023-02-18T04:49:33;97241.94;;;9.25;76.33
56894;BME280;43392;50.078;13.704;2023-02-18T04:52:00;97237.41;;;9.26;75.99
56894;BME280;43392;50.078;13.704;2023-02-18T04:54:26;97234.22;;;9.29;76.05
56894;BME280;43392;50.078;13.704;2023-02-18T04:56:53;97236.63;;;9.30;76.02
56894;BME280;43392;50.078;13.704;2023-02-18T04:59:20;97230.19;;;9.26;76.25
56894;BME280;43392;50.078;13.704;2023-02-18T05:01:46;97237.69;;;9.29;75.81
56894;BME280;43392;50.078;13.704;2023-02-18T05:04:14;97232.34;;;9.29;75.89
56894;BME280;43392;50.078;13.704;2023-02-18T05:06:42;97231.81;;;9.27;75.99
56894;BME280;43392;50.078;13.704;2023-02-18T05:09:08;97224.84;;;9.26;75.95
56894;BME280;43392;50.078;13.704;2023-02-18T05:11:35;97234.72;;;9.26;75.95
56894;BME280;43392;50.078;13.704;2023-02-18T05:14:01;97230.47;;;9.25;76.12
56894;BME280;43392;50.078;13.704;2023-02-18T05:16:28;97236.59;;;9.25;75.88
56894;BME280;43392;50.078;13.704;2023-02-18T05:18:55;97224.56;;;9.28;75.90
56894;BME280;43392;50.078;13.704;2023-02-18T05:21:23;97218.16;;;9.29;75.65
56894;BME280;43392;50.078;13.704;2023-02-18T05:23:49;97237.44;;;9.31;75.46
56894;BME280;43392;50.078;13.704;2023-02-18T05:26:16;97227.53;;;9.31;75.52
56894;BME280;43392;50.078;13.704;2023-02-18T05:28:43;97231.81;;;9.32;75.13
56894;BME280;43392;50.078;13.704;2023-02-18T05:31:09;97231.81;;;9.32;75.38
56894;BME280;43392;50.078;13.704;2023-02-18T05:33:36;97223.53;;;9.34;74.83
56894;BME280;43392;50.078;13.704;2023-02-18T05:36:03;97227.03;;;9.34;74.67
56894;BME280;43392;50.078;13.704;2023-02-18T05:38:31;97225.69;;;9.37;74.63
56894;BME280;43392;50.078;13.704;2023-02-18T05:40:57;97223.81;;;9.38;73.97
56894;BME280;43392;50.078;13.704;2023-02-18T05:43:24;97216.59;;;9.38;73.82
56894;BME280;43392;50.078;13.704;2023-02-18T05:45:51;97217.41;;;9.39;73.66
56894;BME280;43392;50.078;13.704;2023-02-18T05:48:17;97224.38;;;9.40;73.38
56894;BME280;43392;50.078;13.704;2023-02-18T05:50:44;97224.38;;;9.40;73.66
56894;BME280;43392;50.078;13.704;2023-02-18T05:53:10;97221.69;;;9.40;73.62
56894;BME280;43392;50.078;13.704;2023-02-18T05:55:38;97207.22;;;9.41;73.70
56894;BME280;43392;50.078;13.704;2023-02-18T05:58:06;97216.88;;;9.42;73.11
56894;BME280;43392;50.078;13.704;2023-02-18T06:00:33;97209.41;;;9.44;73.20
56894;BME280;43392;50.078;13.704;2023-02-18T06:02:59;97208.59;;;9.43;73.12
56894;BME280;43392;50.078;13.704;2023-02-18T06:05:26;97216.34;;;9.45;73.01
56894;BME280;43392;50.078;13.704;2023-02-18T06:07:52;97211.25;;;9.43;73.04
56894;BME280;43392;50.078;13.704;2023-02-18T06:10:19;97216.63;;;9.43;73.17
56894;BME280;43392;50.078;13.704;2023-02-18T06:12:47;97203.22;;;9.43;72.97
56894;BME280;43392;50.078;13.704;2023-02-18T06:15:13;97203.22;;;9.43;72.85
56894;BME280;43392;50.078;13.704;2023-02-18T06:17:40;97199.75;;;9.43;72.89
56894;BME280;43392;50.078;13.704;2023-02-18T06:20:07;97205.38;;;9.41;72.62
56894;BME280;43392;50.078;13.704;2023-02-18T06:22:34;97201.06;;;9.40;72.78
56894;BME280;43392;50.078;13.704;2023-02-18T06:25:00;97204.31;;;9.47;72.05
56894;BME280;43392;50.078;13.704;2023-02-18T06:27:27;97208.59;;;9.48;71.94
56894;BME280;43392;50.078;13.704;2023-02-18T06:29:55;97202.97;;;9.50;72.17
56894;BME280;43392;50.078;13.704;2023-02-18T06:32:21;97206.47;;;9.50;71.81
56894;BME280;43392;50.078;13.704;2023-02-18T06:34:48;97197.91;;;9.53;71.72
56894;BME280;43392;50.078;13.704;2023-02-18T06:37:14;97204.34;;;9.57;71.74
56894;BME280;43392;50.078;13.704;2023-02-18T06:39:41;97211.06;;;9.60;71.74
56894;BME280;43392;50.078;13.704;2023-02-18T06:42:07;97202.22;;;9.59;71.96
56894;BME280;43392;50.078;13.704;2023-02-18T06:44:34;97196.06;;;9.59;72.05
56894;BME280;43392;50.078;13.704;2023-02-18T06:47:02;97194.72;;;9.56;72.46
56894;BME280;43392;50.078;13.704;2023-02-18T06:49:28;97188.28;;;9.57;72.26
56894;BME280;43392;50.078;13.704;2023-02-18T06:51:55;97190.16;;;9.62;72.39
56894;BME280;43392;50.078;13.704;2023-02-18T06:54:22;97187.25;;;9.63;72.58
56894;BME280;43392;50.078;13.704;2023-02-18T06:56:49;97194.19;;;9.64;73.07
56894;BME280;43392;50.078;13.704;2023-02-18T06:59:15;97169.59;;;9.72;73.22
56894;BME280;43392;50.078;13.704;2023-02-18T07:01:42;97167.19;;;9.71;73.47
56894;BME280;43392;50.078;13.704;2023-02-18T07:04:10;97163.97;;;9.74;73.72
56894;BME280;43392;50.078;13.704;2023-02-18T07:06:37;97165.03;;;9.73;73.66
56894;BME280;43392;50.078;13.704;2023-02-18T07:09:03;97173.06;;;9.73;73.98
56894;BME280;43392;50.078;13.704;2023-02-18T07:11:30;97155.16;;;9.73;74.17
56894;BME280;43392;50.078;13.704;2023-02-18T07:13:57;97165.59;;;9.75;74.60
56894;BME280;43392;50.078;13.704;2023-02-18T07:16:23;97174.66;;;9.74;74.63
56894;BME280;43392;50.078;13.704;2023-02-18T07:18:50;97178.16;;;9.74;74.80
56894;BME280;43392;50.078;13.704;2023-02-18T07:21:18;97169.88;;;9.76;75.19
56894;BME280;43392;50.078;13.704;2023-02-18T07:23:44;97162.38;;;9.78;75.39
56894;BME280;43392;50.078;13.704;2023-02-18T07:26:13;97155.69;;;9.80;75.31
56894;BME280;43392;50.078;13.704;2023-02-18T07:28:40;97160.75;;;9.77;75.69
56894;BME280;43392;50.078;13.704;2023-02-18T07:31:07;97156.50;;;9.81;75.65
56894;BME280;43392;50.078;13.704;2023-02-18T07:33:34;97159.97;;;9.86;76.10
56894;BME280;43392;50.078;13.704;2023-02-18T07:36:01;97148.72;;;9.84;76.30
56894;BME280;43392;50.078;13.704;2023-02-18T07:38:30;97168.81;;;9.82;76.73
56894;BME280;43392;50.078;13.704;2023-02-18T07:40:57;97166.66;;;9.84;77.00
56894;BME280;43392;50.078;13.704;2023-02-18T07:43:24;97162.13;;;9.84;77.44
56894;BME280;43392;50.078;13.704;2023-02-18T07:45:51;97152.47;;;9.98;78.09
56894;BME280;43392;50.078;13.704;2023-02-18T07:48:17;97154.66;;;10.07;77.86
56894;BME280;43392;50.078;13.704;2023-02-18T07:50:45;97150.88;;;10.08;77.86
56894;BME280;43392;50.078;13.704;2023-02-18T07:53:12;97149.31;;;10.17;78.28
56894;BME280;43392;50.078;13.704;2023-02-18T07:55:40;97153.06;;;10.26;77.85
56894;BME280;43392;50.078;13.704;2023-02-18T07:58:16;97157.63;;;10.25;78.23
56894;BME280;43392;50.078;13.704;2023-02-18T08:00:43;97169.44;;;10.29;78.03
56894;BME280;43392;50.078;13.704;2023-02-18T08:03:11;97168.09;;;10.32;77.60
56894;BME280;43392;50.078;13.704;2023-02-18T08:05:38;97159.25;;;10.31;77.54
56894;BME280;43392;50.078;13.704;2023-02-18T08:08:05;97151.22;;;10.31;77.42
56894;BME280;43392;50.078;13.704;2023-02-18T08:10:31;97140.22;;;10.33;77.84
56894;BME280;43392;50.078;13.704;2023-02-18T08:12:59;97147.97;;;10.44;77.16
56894;BME280;43392;50.078;13.704;2023-02-18T08:15:26;97143.41;;;10.55;77.38
56894;BME280;43392;50.078;13.704;2023-02-18T08:17:52;97143.66;;;10.58;76.66
56894;BME280;43392;50.078;13.704;2023-02-18T08:20:19;97136.69;;;10.62;75.71
56894;BME280;43392;50.078;13.704;2023-02-18T08:22:46;97130.81;;;10.60;76.04
56894;BME280;43392;50.078;13.704;2023-02-18T08:25:12;97126.78;;;10.63;75.95
56894;BME280;43392;50.078;13.704;2023-02-18T08:27:39;97127.53;;;10.74;75.71
56894;BME280;43392;50.078;13.704;2023-02-18T08:30:08;97129.97;;;10.70;75.04
56894;BME280;43392;50.078;13.704;2023-02-18T08:32:35;97127.00;;;10.77;75.84
56894;BME280;43392;50.078;13.704;2023-02-18T08:35:02;97122.41;;;10.92;75.73
56894;BME280;43392;50.078;13.704;2023-02-18T08:37:29;97122.13;;;10.94;73.98
56894;BME280;43392;50.078;13.704;2023-02-18T08:39:56;97117.81;;;10.98;74.55
56894;BME280;43392;50.078;13.704;2023-02-18T08:42:22;97124.25;;;11.02;74.48
56894;BME280;43392;50.078;13.704;2023-02-18T08:44:49;97117.28;;;11.01;74.13
56894;BME280;43392;50.078;13.704;2023-02-18T08:47:17;97104.06;;;11.09;74.60
56894;BME280;43392;50.078;13.704;2023-02-18T08:49:43;97108.66;;;11.09;74.05
56894;BME280;43392;50.078;13.704;2023-02-18T08:52:10;97097.94;;;11.09;74.74
56894;BME280;43392;50.078;13.704;2023-02-18T08:54:36;97098.94;;;11.18;74.53
56894;BME280;43392;50.078;13.704;2023-02-18T08:57:03;97097.06;;;11.18;74.31
56894;BME280;43392;50.078;13.704;2023-02-18T08:59:30;97092.56;;;11.09;74.67
56894;BME280;43392;50.078;13.704;2023-02-18T09:01:56;97092.31;;;10.95;74.78
56894;BME280;43392;50.078;13.704;2023-02-18T09:04:24;97091.59;;;10.85;75.54
56894;BME280;43392;50.078;13.704;2023-02-18T09:06:51;97099.88;;;10.83;75.87
56894;BME280;43392;50.078;13.704;2023-02-18T09:09:17;97098.84;;;10.79;76.19
56894;BME280;43392;50.078;13.704;2023-02-18T09:11:44;97083.03;;;10.78;76.51
56894;BME280;43392;50.078;13.704;2023-02-18T09:14:12;97078.19;;;10.75;76.77
56894;BME280;43392;50.078;13.704;2023-02-18T09:16:40;97076.88;;;10.72;77.71
56894;BME280;43392;50.078;13.704;2023-02-18T09:19:06;97077.69;;;10.68;78.15
56894;BME280;43392;50.078;13.704;2023-02-18T09:21:34;97061.84;;;10.66;78.41
56894;BME280;43392;50.078;13.704;2023-02-18T09:24:01;97071.22;;;10.68;79.21
56894;BME280;43392;50.078;13.704;2023-02-18T09:26:27;97072.31;;;10.68;79.66
56894;BME280;43392;50.078;13.704;2023-02-18T09:28:55;97060.78;;;10.67;79.83
56894;BME280;43392;50.078;13.704;2023-02-18T09:31:24;97062.41;;;10.68;80.09
56894;BME280;43392;50.078;13.704;2023-02-18T09:33:52;97054.34;;;10.68;80.40
56894;BME280;43392;50.078;13.704;2023-02-18T09:36:19;97053.56;;;10.68;80.41
56894;BME280;43392;50.078;13.704;2023-02-18T09:38:48;97046.56;;;10.66;81.11
56894;BME280;43392;50.078;13.704;2023-02-18T09:41:23;97043.34;;;10.64;81.25
56894;BME280;43392;50.078;13.704;2023-02-18T09:43:54;97030.97;;;10.74;81.03
56894;BME280;43392;50.078;13.704;2023-02-18T09:46:25;97032.59;;;10.80;80.75
56894;BME280;43392;50.078;13.704;2023-02-18T09:48:54;97026.94;;;10.81;81.14
56894;BME280;43392;50.078;13.704;2023-02-18T09:51:21;97023.16;;;10.87;80.45
56894;BME280;43392;50.078;13.704;2023-02-18T09:53:49;97016.94;;;10.97;80.68
56894;BME280;43392;50.078;13.704;2023-02-18T09:56:19;96993.31;;;10.99;80.51
56894;BME280;43392;50.078;13.704;2023-02-18T09:58:48;97013.94;;;11.03;80.34
56894;BME280;43392;50.078;13.704;2023-02-18T10:01:26;97004.84;;;11.04;80.59
56894;BME280;43392;50.078;13.704;2023-02-18T10:03:57;97000.72;;;11.17;79.94
56894;BME280;43392;50.078;13.704;2023-02-18T10:06:26;96999.69;;;11.13;80.27
56894;BME280;43392;50.078;13.704;2023-02-18T10:09:00;97005.56;;;11.15;80.10
56894;BME280;43392;50.078;13.704;2023-02-18T10:11:30;96992.66;;;11.17;80.17
56894;BME280;43392;50.078;13.704;2023-02-18T10:13:57;96987.06;;;11.13;80.35
56894;BME280;43392;50.078;13.704;2023-02-18T10:16:27;96996.22;;;11.02;80.98
56894;BME280;43392;50.078;13.704;2023-02-18T10:18:56;96985.28;;;10.99;81.11
56894;BME280;43392;50.078;13.704;2023-02-18T10:21:25;96994.41;;;10.93;81.38
56894;BME280;43392;50.078;13.704;2023-02-18T10:23:58;96988.78;;;10.94;81.18
56894;BME280;43392;50.078;13.704;2023-02-18T10:26:26;96994.44;;;10.88;81.01
56894;BME280;43392;50.078;13.704;2023-02-18T10:28:54;96991.22;;;10.91;80.37
56894;BME280;43392;50.078;13.704;2023-02-18T10:31:26;96999.25;;;10.91;79.76
56894;BME280;43392;50.078;13.704;2023-02-18T10:33:58;96979.75;;;10.80;78.79
56894;BME280;43392;50.078;13.704;2023-02-18T10:36:35;96981.81;;;10.88;78.56
56894;BME280;43392;50.078;13.704;2023-02-18T10:39:18;96990.16;;;10.92;78.58
56894;BME280;43392;50.078;13.704;2023-02-18T10:41:53;96978.09;;;10.89;78.22
56894;BME280;43392;50.078;13.704;2023-02-18T10:44:29;96985.13;;;10.80;77.65
56894;BME280;43392;50.078;13.704;2023-02-18T10:47:11;96992.91;;;10.77;77.81
56894;BME280;43392;50.078;13.704;2023-02-18T10:49:56;96994.50;;;10.78;77.73
56894;BME280;43392;50.078;13.704;2023-02-18T10:52:26;96984.56;;;10.73;77.72
56894;BME280;43392;50.078;13.704;2023-02-18T10:54:59;96975.75;;;10.73;77.75
56894;BME280;43392;50.078;13.704;2023-02-18T10:57:26;96974.94;;;10.77;77.32
56894;BME280;43392;50.078;13.704;2023-02-18T10:59:55;96980.81;;;10.79;76.85
56894;BME280;43392;50.078;13.704;2023-02-18T11:02:25;96966.34;;;10.80;76.90
56894;BME280;43392;50.078;13.704;2023-02-18T11:04:54;96965.00;;;10.78;76.33
56894;BME280;43392;50.078;13.704;2023-02-18T11:07:25;96955.06;;;10.73;76.06
56894;BME280;43392;50.078;13.704;2023-02-18T11:09:53;96948.34;;;10.76;76.41
56894;BME280;43392;50.078;13.704;2023-02-18T11:12:24;96951.03;;;10.81;76.15
56894;BME280;43392;50.078;13.704;2023-02-18T11:15:02;96946.72;;;10.85;75.62
56894;BME280;43392;50.078;13.704;2023-02-18T11:17:31;96941.63;;;10.83;75.19
56894;BME280;43392;50.078;13.704;2023-02-18T11:19:59;96915.88;;;10.87;74.92
56894;BME280;43392;50.078;13.704;2023-02-18T11:22:28;96923.59;;;10.94;74.29
56894;BME280;43392;50.078;13.704;2023-02-18T11:24:58;96905.31;;;10.96;74.14
56894;BME280;43392;50.078;13.704;2023-02-18T11:27:31;96883.09;;;10.90;73.96
56894;BME280;43392;50.078;13.704;2023-02-18T11:30:03;96905.00;;;11.02;73.97
56894;BME280;43392;50.078;13.704;2023-02-18T11:32:33;96912.03;;;10.98;73.56
56894;BME280;43392;50.078;13.704;2023-02-18T11:35:01;96894.09;;;10.94;73.82
56894;BME280;43392;50.078;13.704;2023-02-18T11:37:31;96920.38;;;10.92;73.32
56894;BME280;43392;50.078;13.704;2023-02-18T11:39:58;96908.59;;;10.88;73.79
56894;BME280;43392;50.078;13.704;2023-02-18T11:42:27;96911.59;;;10.81;73.58
56894;BME280;43392;50.078;13.704;2023-02-18T11:44:56;96920.00;;;10.64;73.49
56894;BME280;43392;50.078;13.704;2023-02-18T11:47:25;96918.38;;;10.63;74.12
56894;BME280;43392;50.078;13.704;2023-02-18T11:50:13;96915.16;;;10.66;73.30
56894;BME280;43392;50.078;13.704;2023-02-18T11:52:42;96900.16;;;10.65;72.90
56894;BME280;43392;50.078;13.704;2023-02-18T11:55:15;96903.09;;;10.69;71.97
56894;BME280;43392;50.078;13.704;2023-02-18T11:57:47;96897.38;;;10.81;72.17
56894;BME280;43392;50.078;13.704;2023-02-18T12:00:20;96886.56;;;10.96;70.78
56894;BME280;43392;50.078;13.704;2023-02-18T12:02:49;96858.31;;;11.03;68.32
56894;BME280;43392;50.078;13.704;2023-02-18T12:05:20;96874.56;;;11.17;68.07
56894;BME280;43392;50.078;13.704;2023-02-18T12:07:48;96868.44;;;11.16;67.71
56894;BME280;43392;50.078;13.704;2023-02-18T12:10:21;96860.56;;;11.25;67.95
56894;BME280;43392;50.078;13.704;2023-02-18T12:12:54;96851.66;;;11.29;66.99
56894;BME280;43392;50.078;13.704;2023-02-18T12:15:28;96855.19;;;11.25;65.57
56894;BME280;43392;50.078;13.704;2023-02-18T12:18:12;96846.63;;;11.23;66.07
56894;BME280;43392;50.078;13.704;2023-02-18T12:20:49;96853.31;;;11.25;66.54
56894;BME280;43392;50.078;13.704;2023-02-18T12:23:23;96842.75;;;11.34;66.70
56894;BME280;43392;50.078;13.704;2023-02-18T12:25:56;96834.59;;;11.44;66.13
56894;BME280;43392;50.078;13.704;2023-02-18T12:28:49;96821.94;;;11.50;65.50
56894;BME280;43392;50.078;13.704;2023-02-18T12:31:46;96839.94;;;11.49;63.70
56894;BME280;43392;50.078;13.704;2023-02-18T12:34:26;96836.19;;;11.50;63.56
56894;BME280;43392;50.078;13.704;2023-02-18T12:37:07;96828.34;;;11.54;63.49
56894;BME280;43392;50.078;13.704;2023-02-18T12:39:54;96812.03;;;11.74;63.00
56894;BME280;43392;50.078;13.704;2023-02-18T12:42:34;96808.25;;;11.75;63.09
56894;BME280;43392;50.078;13.704;2023-02-18T12:45:21;96811.03;;;11.70;62.71
56894;BME280;43392;50.078;13.704;2023-02-18T12:48:08;96823.47;;;11.56;62.86
56894;BME280;43392;50.078;13.704;2023-02-18T12:51:01;96811.38;;;11.58;63.60
56894;BME280;43392;50.078;13.704;2023-02-18T12:53:50;96827.97;;;11.60;63.96
56894;BME280;43392;50.078;13.704;2023-02-18T12:56:46;96821.13;;;11.49;63.46
56894;BME280;43392;50.078;13.704;2023-02-18T13:04:43;96800.88;;;11.62;62.63
56894;BME280;43392;50.078;13.704;2023-02-18T13:07:32;96798.38;;;11.70;61.65
56894;BME280;43392;50.078;13.704;2023-02-18T13:10:26;96802.75;;;11.85;61.24
56894;BME280;43392;50.078;13.704;2023-02-18T13:13:00;96794.56;;;11.76;61.31
56894;BME280;43392;50.078;13.704;2023-02-18T13:15:35;96794.63;;;11.66;61.68
56894;BME280;43392;50.078;13.704;2023-02-18T13:18:09;96786.31;;;11.68;61.05
56894;BME280;43392;50.078;13.704;2023-02-18T13:20:40;96785.81;;;11.61;61.84
56894;BME280;43392;50.078;13.704;2023-02-18T13:23:15;96789.97;;;11.48;60.91